sensor_id;sensor_type;location;lat;lon;timestamp;P1;durP1;ratioP1;P2;durP2;ratioP2
53925;SDS011;39836;52.754;6.866;2022-11-20T00:00:52;33.33;;;20.63;;
53925;SDS011;39836;52.754;6.866;2022-11-20T00:03:17;28.27;;;19.30;;
53925;SDS011;39836;52.754;6.866;2022-11-20T00:05:44;26.40;;;18.02;;
53925;SDS011;39836;52.754;6.866;2022-11-20T00:08:10;29.88;;;19.52;;
53925;SDS011;39836;52.754;6.866;2022-11-20T00:10:36;27.40;;;19.65;;
53925;SDS011;39836;52.754;6.866;2022-11-20T00:13:02;28.75;;;19.80;;
53925;SDS011;39836;52.754;6.866;2022-11-20T00:15:29;33.03;;;21.00;;
53925;SDS011;39836;52.754;6.866;2022-11-20T00:17:54;29.38;;;19.88;;
53925;SDS011;39836;52.754;6.866;2022-11-20T00:20:20;31.10;;;19.13;;
53925;SDS011;39836;52.754;6.866;2022-11-20T00:22:46;27.73;;;18.38;;
53925;SDS011;39836;52.754;6.866;2022-11-20T00:25:11;32.17;;;21.35;;
53925;SDS011;39836;52.754;6.866;2022-11-20T00:27:37;32.92;;;21.27;;
53925;SDS011;39836;52.754;6.866;2022-11-20T00:30:04;33.30;;;20.63;;
53925;SDS011;39836;52.754;6.866;2022-11-20T00:32:30;34.03;;;21.10;;
53925;SDS011;39836;52.754;6.866;2022-11-20T00:34:56;29.08;;;19.85;;
53925;SDS011;39836;52.754;6.866;2022-11-20T00:37:21;27.27;;;19.80;;
53925;SDS011;39836;52.754;6.866;2022-11-20T00:39:47;35.88;;;22.70;;
53925;SDS011;39836;52.754;6.866;2022-11-20T00:42:13;30.30;;;19.33;;
53925;SDS011;39836;52.754;6.866;2022-11-20T00:44:38;30.33;;;19.42;;
53925;SDS011;39836;52.754;6.866;2022-11-20T00:47:04;29.70;;;19.55;;
53925;SDS011;39836;52.754;6.866;2022-11-20T00:49:30;27.23;;;19.33;;
53925;SDS011;39836;52.754;6.866;2022-11-20T00:51:56;27.65;;;18.80;;
53925;SDS011;39836;52.754;6.866;2022-11-20T00:54:21;26.60;;;18.80;;
53925;SDS011;39836;52.754;6.866;2022-11-20T00:56:47;26.98;;;16.92;;
53925;SDS011;39836;52.754;6.866;2022-11-20T00:59:13;27.65;;;18.98;;
53925;SDS011;39836;52.754;6.866;2022-11-20T01:01:38;26.58;;;18.98;;
53925;SDS011;39836;52.754;6.866;2022-11-20T01:04:04;31.75;;;19.65;;
53925;SDS011;39836;52.754;6.866;2022-11-20T01:06:30;28.27;;;17.58;;
53925;SDS011;39836;52.754;6.866;2022-11-20T01:08:59;27.55;;;18.20;;
53925;SDS011;39836;52.754;6.866;2022-11-20T01:11:27;29.25;;;18.63;;
53925;SDS011;39836;52.754;6.866;2022-11-20T01:13:57;27.00;;;17.58;;
53925;SDS011;39836;52.754;6.866;2022-11-20T01:16:26;26.42;;;18.13;;
53925;SDS011;39836;52.754;6.866;2022-11-20T01:18:54;25.70;;;17.88;;
53925;SDS011;39836;52.754;6.866;2022-11-20T01:21:23;25.50;;;18.60;;
53925;SDS011;39836;52.754;6.866;2022-11-20T01:23:54;27.45;;;17.73;;
53925;SDS011;39836;52.754;6.866;2022-11-20T01:26:21;23.85;;;17.08;;
53925;SDS011;39836;52.754;6.866;2022-11-20T01:28:48;25.30;;;17.52;;
53925;SDS011;39836;52.754;6.866;2022-11-20T01:31:19;27.25;;;17.92;;
53925;SDS011;39836;52.754;6.866;2022-11-20T01:33:47;23.92;;;16.80;;
53925;SDS011;39836;52.754;6.866;2022-11-20T01:36:14;26.33;;;16.70;;
53925;SDS011;39836;52.754;6.866;2022-11-20T01:38:40;25.38;;;17.17;;
53925;SDS011;39836;52.754;6.866;2022-11-20T01:41:06;25.77;;;17.98;;
53925;SDS011;39836;52.754;6.866;2022-11-20T01:43:33;23.98;;;16.38;;
53925;SDS011;39836;52.754;6.866;2022-11-20T01:46:15;24.05;;;16.90;;
53925;SDS011;39836;52.754;6.866;2022-11-20T01:48:47;24.27;;;16.75;;
53925;SDS011;39836;52.754;6.866;2022-11-20T01:53:59;24.77;;;16.00;;
53925;SDS011;39836;52.754;6.866;2022-11-20T01:56:28;27.08;;;17.42;;
53925;SDS011;39836;52.754;6.866;2022-11-20T01:58:59;25.08;;;16.52;;
53925;SDS011;39836;52.754;6.866;2022-11-20T02:01:27;27.00;;;18.05;;
53925;SDS011;39836;52.754;6.866;2022-11-20T02:03:53;28.20;;;18.75;;
53925;SDS011;39836;52.754;6.866;2022-11-20T02:06:23;27.65;;;17.40;;
53925;SDS011;39836;52.754;6.866;2022-11-20T02:08:54;26.02;;;17.63;;
53925;SDS011;39836;52.754;6.866;2022-11-20T02:11:20;24.25;;;16.17;;
53925;SDS011;39836;52.754;6.866;2022-11-20T02:13:46;24.40;;;16.48;;
53925;SDS011;39836;52.754;6.866;2022-11-20T02:16:14;25.00;;;17.13;;
53925;SDS011;39836;52.754;6.866;2022-11-20T02:18:41;23.85;;;17.23;;
53925;SDS011;39836;52.754;6.866;2022-11-20T02:26:31;23.42;;;16.65;;
53925;SDS011;39836;52.754;6.866;2022-11-20T02:29:03;23.20;;;16.15;;
53925;SDS011;39836;52.754;6.866;2022-11-20T02:31:29;25.33;;;16.77;;
53925;SDS011;39836;52.754;6.866;2022-11-20T02:34:00;27.63;;;18.50;;
53925;SDS011;39836;52.754;6.866;2022-11-20T02:36:26;25.92;;;17.20;;
53925;SDS011;39836;52.754;6.866;2022-11-20T02:38:53;24.63;;;16.70;;
53925;SDS011;39836;52.754;6.866;2022-11-20T02:41:19;27.73;;;17.13;;
53925;SDS011;39836;52.754;6.866;2022-11-20T02:43:45;27.75;;;17.73;;
53925;SDS011;39836;52.754;6.866;2022-11-20T02:46:10;26.20;;;17.65;;
53925;SDS011;39836;52.754;6.866;2022-11-20T02:48:36;26.85;;;17.90;;
53925;SDS011;39836;52.754;6.866;2022-11-20T02:51:02;24.63;;;16.58;;
53925;SDS011;39836;52.754;6.866;2022-11-20T02:53:28;23.23;;;16.95;;
53925;SDS011;39836;52.754;6.866;2022-11-20T02:55:53;26.95;;;17.85;;
53925;SDS011;39836;52.754;6.866;2022-11-20T02:58:19;24.60;;;16.63;;
53925;SDS011;39836;52.754;6.866;2022-11-20T03:00:45;23.70;;;17.17;;
53925;SDS011;39836;52.754;6.866;2022-11-20T03:03:11;27.92;;;17.83;;
53925;SDS011;39836;52.754;6.866;2022-11-20T03:05:36;26.08;;;17.70;;
53925;SDS011;39836;52.754;6.866;2022-11-20T03:08:02;25.23;;;16.83;;
53925;SDS011;39836;52.754;6.866;2022-11-20T03:10:28;25.70;;;17.13;;
53925;SDS011;39836;52.754;6.866;2022-11-20T03:12:54;25.83;;;16.48;;
53925;SDS011;39836;52.754;6.866;2022-11-20T03:15:21;26.17;;;17.50;;
53925;SDS011;39836;52.754;6.866;2022-11-20T03:17:47;26.25;;;17.42;;
53925;SDS011;39836;52.754;6.866;2022-11-20T03:20:13;24.25;;;16.88;;
53925;SDS011;39836;52.754;6.866;2022-11-20T03:22:39;26.20;;;18.08;;
53925;SDS011;39836;52.754;6.866;2022-11-20T03:25:04;23.73;;;16.60;;
53925;SDS011;39836;52.754;6.866;2022-11-20T03:27:33;24.02;;;17.08;;
53925;SDS011;39836;52.754;6.866;2022-11-20T03:30:00;25.95;;;17.90;;
53925;SDS011;39836;52.754;6.866;2022-11-20T03:32:26;23.67;;;16.23;;
53925;SDS011;39836;52.754;6.866;2022-11-20T03:34:51;27.10;;;16.30;;
53925;SDS011;39836;52.754;6.866;2022-11-20T03:37:17;25.95;;;16.75;;
53925;SDS011;39836;52.754;6.866;2022-11-20T03:39:43;23.92;;;16.30;;
53925;SDS011;39836;52.754;6.866;2022-11-20T03:42:08;24.35;;;16.80;;
53925;SDS011;39836;52.754;6.866;2022-11-20T03:44:54;27.15;;;18.23;;
53925;SDS011;39836;52.754;6.866;2022-11-20T03:47:20;24.92;;;16.20;;
53925;SDS011;39836;52.754;6.866;2022-11-20T03:49:45;23.83;;;15.85;;
53925;SDS011;39836;52.754;6.866;2022-11-20T03:52:11;28.30;;;17.05;;
53925;SDS011;39836;52.754;6.866;2022-11-20T03:54:37;24.25;;;16.42;;
53925;SDS011;39836;52.754;6.866;2022-11-20T03:57:02;23.63;;;16.15;;
53925;SDS011;39836;52.754;6.866;2022-11-20T03:59:28;24.10;;;16.20;;
53925;SDS011;39836;52.754;6.866;2022-11-20T04:01:53;24.45;;;17.00;;
53925;SDS011;39836;52.754;6.866;2022-11-20T04:04:19;26.45;;;16.92;;
53925;SDS011;39836;52.754;6.866;2022-11-20T04:06:45;27.17;;;18.17;;
53925;SDS011;39836;52.754;6.866;2022-11-20T04:09:11;26.80;;;17.52;;
53925;SDS011;39836;52.754;6.866;2022-11-20T04:11:39;23.20;;;16.42;;
53925;SDS011;39836;52.754;6.866;2022-11-20T04:14:06;25.00;;;16.50;;
53925;SDS011;39836;52.754;6.866;2022-11-20T04:16:36;25.65;;;17.40;;
53925;SDS011;39836;52.754;6.866;2022-11-20T04:19:04;26.75;;;16.90;;
53925;SDS011;39836;52.754;6.866;2022-11-20T04:21:34;26.33;;;17.33;;
53925;SDS011;39836;52.754;6.866;2022-11-20T04:24:00;26.70;;;17.98;;
53925;SDS011;39836;52.754;6.866;2022-11-20T04:26:26;23.02;;;16.25;;
53925;SDS011;39836;52.754;6.866;2022-11-20T04:28:53;26.20;;;17.15;;
53925;SDS011;39836;52.754;6.866;2022-11-20T04:31:23;29.05;;;18.15;;
53925;SDS011;39836;52.754;6.866;2022-11-20T04:33:51;25.60;;;17.63;;
53925;SDS011;39836;52.754;6.866;2022-11-20T04:36:18;26.58;;;17.27;;
53925;SDS011;39836;52.754;6.866;2022-11-20T04:38:46;24.45;;;16.98;;
53925;SDS011;39836;52.754;6.866;2022-11-20T04:41:16;27.02;;;16.35;;
53925;SDS011;39836;52.754;6.866;2022-11-20T04:43:46;25.88;;;16.27;;
53925;SDS011;39836;52.754;6.866;2022-11-20T04:46:16;24.80;;;17.80;;
53925;SDS011;39836;52.754;6.866;2022-11-20T04:48:43;23.88;;;16.80;;
53925;SDS011;39836;52.754;6.866;2022-11-20T04:51:09;24.88;;;16.90;;
53925;SDS011;39836;52.754;6.866;2022-11-20T04:53:34;25.98;;;18.23;;
53925;SDS011;39836;52.754;6.866;2022-11-20T04:56:00;26.02;;;17.17;;
53925;SDS011;39836;52.754;6.866;2022-11-20T04:58:30;27.52;;;18.85;;
53925;SDS011;39836;52.754;6.866;2022-11-20T05:01:02;25.27;;;17.63;;
53925;SDS011;39836;52.754;6.866;2022-11-20T05:03:33;27.95;;;17.30;;
53925;SDS011;39836;52.754;6.866;2022-11-20T05:06:00;23.83;;;17.95;;
53925;SDS011;39836;52.754;6.866;2022-11-20T05:08:26;26.98;;;19.88;;
53925;SDS011;39836;52.754;6.866;2022-11-20T05:10:52;28.25;;;18.23;;
53925;SDS011;39836;52.754;6.866;2022-11-20T05:13:18;25.42;;;17.27;;
53925;SDS011;39836;52.754;6.866;2022-11-20T05:15:43;26.73;;;17.13;;
53925;SDS011;39836;52.754;6.866;2022-11-20T05:18:09;26.52;;;17.02;;
53925;SDS011;39836;52.754;6.866;2022-11-20T05:20:35;27.70;;;17.65;;
53925;SDS011;39836;52.754;6.866;2022-11-20T05:23:01;24.15;;;17.33;;
53925;SDS011;39836;52.754;6.866;2022-11-20T05:25:27;24.88;;;17.23;;
53925;SDS011;39836;52.754;6.866;2022-11-20T05:27:53;25.42;;;17.55;;
53925;SDS011;39836;52.754;6.866;2022-11-20T05:30:19;26.80;;;18.13;;
53925;SDS011;39836;52.754;6.866;2022-11-20T05:32:44;24.20;;;17.48;;
53925;SDS011;39836;52.754;6.866;2022-11-20T05:35:10;27.88;;;17.65;;
53925;SDS011;39836;52.754;6.866;2022-11-20T05:37:35;25.02;;;17.02;;
53925;SDS011;39836;52.754;6.866;2022-11-20T05:40:01;26.65;;;16.80;;
53925;SDS011;39836;52.754;6.866;2022-11-20T05:42:30;25.88;;;17.67;;
53925;SDS011;39836;52.754;6.866;2022-11-20T05:45:03;27.35;;;17.42;;
53925;SDS011;39836;52.754;6.866;2022-11-20T05:47:33;25.58;;;17.70;;
53925;SDS011;39836;52.754;6.866;2022-11-20T05:49:59;28.63;;;17.90;;
53925;SDS011;39836;52.754;6.866;2022-11-20T05:52:27;30.52;;;18.70;;
53925;SDS011;39836;52.754;6.866;2022-11-20T05:54:54;26.67;;;19.20;;
53925;SDS011;39836;52.754;6.866;2022-11-20T05:57:19;29.63;;;17.73;;
53925;SDS011;39836;52.754;6.866;2022-11-20T05:59:45;26.38;;;17.30;;
53925;SDS011;39836;52.754;6.866;2022-11-20T06:02:11;24.40;;;17.25;;
53925;SDS011;39836;52.754;6.866;2022-11-20T06:04:36;26.25;;;17.73;;
53925;SDS011;39836;52.754;6.866;2022-11-20T06:07:02;24.33;;;17.13;;
53925;SDS011;39836;52.754;6.866;2022-11-20T06:09:30;24.65;;;17.65;;
53925;SDS011;39836;52.754;6.866;2022-11-20T06:11:55;28.30;;;18.25;;
53925;SDS011;39836;52.754;6.866;2022-11-20T06:14:21;25.73;;;17.05;;
53925;SDS011;39836;52.754;6.866;2022-11-20T06:16:47;23.45;;;16.83;;
53925;SDS011;39836;52.754;6.866;2022-11-20T06:19:12;27.50;;;17.73;;
53925;SDS011;39836;52.754;6.866;2022-11-20T06:21:38;28.88;;;18.05;;
53925;SDS011;39836;52.754;6.866;2022-11-20T06:24:04;31.83;;;18.73;;
53925;SDS011;39836;52.754;6.866;2022-11-20T06:26:30;25.48;;;18.55;;
53925;SDS011;39836;52.754;6.866;2022-11-20T06:28:56;24.73;;;17.83;;
53925;SDS011;39836;52.754;6.866;2022-11-20T06:31:22;25.55;;;17.75;;
53925;SDS011;39836;52.754;6.866;2022-11-20T06:33:49;28.20;;;18.38;;
53925;SDS011;39836;52.754;6.866;2022-11-20T06:36:16;24.15;;;17.98;;
53925;SDS011;39836;52.754;6.866;2022-11-20T06:38:44;26.98;;;17.60;;
53925;SDS011;39836;52.754;6.866;2022-11-20T06:41:11;29.15;;;18.33;;
53925;SDS011;39836;52.754;6.866;2022-11-20T06:43:41;27.80;;;18.20;;
53925;SDS011;39836;52.754;6.866;2022-11-20T06:46:09;26.83;;;17.90;;
53925;SDS011;39836;52.754;6.866;2022-11-20T06:48:38;26.65;;;17.58;;
53925;SDS011;39836;52.754;6.866;2022-11-20T06:51:05;26.55;;;18.75;;
53925;SDS011;39836;52.754;6.866;2022-11-20T06:53:32;25.15;;;17.25;;
53925;SDS011;39836;52.754;6.866;2022-11-20T06:55:59;24.35;;;17.63;;
53925;SDS011;39836;52.754;6.866;2022-11-20T06:58:28;25.10;;;17.17;;
53925;SDS011;39836;52.754;6.866;2022-11-20T07:01:03;26.85;;;17.30;;
53925;SDS011;39836;52.754;6.866;2022-11-20T07:03:30;27.05;;;17.52;;
53925;SDS011;39836;52.754;6.866;2022-11-20T07:05:56;26.90;;;16.70;;
53925;SDS011;39836;52.754;6.866;2022-11-20T07:08:23;22.90;;;16.40;;
53925;SDS011;39836;52.754;6.866;2022-11-20T07:10:50;25.23;;;16.40;;
53925;SDS011;39836;52.754;6.866;2022-11-20T07:13:15;24.85;;;16.30;;
53925;SDS011;39836;52.754;6.866;2022-11-20T07:15:41;25.52;;;17.05;;
53925;SDS011;39836;52.754;6.866;2022-11-20T07:18:07;25.25;;;17.13;;
53925;SDS011;39836;52.754;6.866;2022-11-20T07:20:32;24.17;;;16.67;;
53925;SDS011;39836;52.754;6.866;2022-11-20T07:22:58;24.05;;;16.42;;
53925;SDS011;39836;52.754;6.866;2022-11-20T07:25:24;24.65;;;16.90;;
53925;SDS011;39836;52.754;6.866;2022-11-20T07:27:51;27.73;;;17.98;;
53925;SDS011;39836;52.754;6.866;2022-11-20T07:30:17;26.35;;;17.48;;
53925;SDS011;39836;52.754;6.866;2022-11-20T07:32:46;23.15;;;16.77;;
53925;SDS011;39836;52.754;6.866;2022-11-20T07:35:13;25.17;;;16.67;;
53925;SDS011;39836;52.754;6.866;2022-11-20T07:37:38;26.30;;;17.20;;
53925;SDS011;39836;52.754;6.866;2022-11-20T07:40:04;24.88;;;16.63;;
53925;SDS011;39836;52.754;6.866;2022-11-20T07:42:30;25.10;;;16.70;;
53925;SDS011;39836;52.754;6.866;2022-11-20T07:44:56;24.58;;;16.55;;
53925;SDS011;39836;52.754;6.866;2022-11-20T07:47:21;24.92;;;17.63;;
53925;SDS011;39836;52.754;6.866;2022-11-20T07:49:47;24.92;;;17.15;;
53925;SDS011;39836;52.754;6.866;2022-11-20T07:52:13;25.00;;;16.95;;
53925;SDS011;39836;52.754;6.866;2022-11-20T07:54:38;29.17;;;17.63;;
53925;SDS011;39836;52.754;6.866;2022-11-20T07:57:04;24.25;;;16.75;;
53925;SDS011;39836;52.754;6.866;2022-11-20T07:59:29;29.55;;;20.58;;
53925;SDS011;39836;52.754;6.866;2022-11-20T08:01:55;32.00;;;21.35;;
53925;SDS011;39836;52.754;6.866;2022-11-20T08:04:21;30.75;;;21.20;;
53925;SDS011;39836;52.754;6.866;2022-11-20T08:06:46;24.65;;;17.85;;
53925;SDS011;39836;52.754;6.866;2022-11-20T08:09:12;24.77;;;17.48;;
53925;SDS011;39836;52.754;6.866;2022-11-20T08:11:38;26.80;;;17.90;;
53925;SDS011;39836;52.754;6.866;2022-11-20T08:14:22;23.35;;;16.98;;
53925;SDS011;39836;52.754;6.866;2022-11-20T08:16:48;25.10;;;17.85;;
53925;SDS011;39836;52.754;6.866;2022-11-20T08:19:14;28.90;;;17.98;;
53925;SDS011;39836;52.754;6.866;2022-11-20T08:21:43;24.42;;;17.20;;
53925;SDS011;39836;52.754;6.866;2022-11-20T08:24:09;25.52;;;17.85;;
53925;SDS011;39836;52.754;6.866;2022-11-20T08:26:36;24.02;;;17.20;;
53925;SDS011;39836;52.754;6.866;2022-11-20T08:29:03;24.65;;;17.30;;
53925;SDS011;39836;52.754;6.866;2022-11-20T08:31:30;24.02;;;16.55;;
53925;SDS011;39836;52.754;6.866;2022-11-20T08:33:56;26.67;;;17.60;;
53925;SDS011;39836;52.754;6.866;2022-11-20T08:36:22;24.88;;;17.08;;
53925;SDS011;39836;52.754;6.866;2022-11-20T08:38:49;25.15;;;17.92;;
53925;SDS011;39836;52.754;6.866;2022-11-20T08:41:16;27.23;;;17.42;;
53925;SDS011;39836;52.754;6.866;2022-11-20T08:44:02;26.05;;;17.13;;
53925;SDS011;39836;52.754;6.866;2022-11-20T08:46:34;26.08;;;18.02;;
53925;SDS011;39836;52.754;6.866;2022-11-20T08:49:06;22.90;;;17.05;;
53925;SDS011;39836;52.754;6.866;2022-11-20T08:51:34;25.30;;;16.33;;
53925;SDS011;39836;52.754;6.866;2022-11-20T08:54:00;25.77;;;16.50;;
53925;SDS011;39836;52.754;6.866;2022-11-20T08:56:25;25.65;;;17.38;;
53925;SDS011;39836;52.754;6.866;2022-11-20T08:58:51;25.73;;;17.40;;
53925;SDS011;39836;52.754;6.866;2022-11-20T09:01:18;26.30;;;17.92;;
53925;SDS011;39836;52.754;6.866;2022-11-20T09:03:44;27.08;;;18.27;;
53925;SDS011;39836;52.754;6.866;2022-11-20T09:06:10;25.65;;;17.20;;
53925;SDS011;39836;52.754;6.866;2022-11-20T09:08:37;24.23;;;17.10;;
53925;SDS011;39836;52.754;6.866;2022-11-20T09:11:03;30.83;;;18.17;;
53925;SDS011;39836;52.754;6.866;2022-11-20T09:13:29;25.35;;;17.67;;
53925;SDS011;39836;52.754;6.866;2022-11-20T09:15:56;24.15;;;17.08;;
53925;SDS011;39836;52.754;6.866;2022-11-20T09:18:23;23.75;;;16.58;;
53925;SDS011;39836;52.754;6.866;2022-11-20T09:20:49;24.73;;;17.77;;
53925;SDS011;39836;52.754;6.866;2022-11-20T09:23:15;25.27;;;17.70;;
53925;SDS011;39836;52.754;6.866;2022-11-20T09:25:41;23.55;;;16.65;;
53925;SDS011;39836;52.754;6.866;2022-11-20T09:28:08;25.02;;;16.95;;
53925;SDS011;39836;52.754;6.866;2022-11-20T09:30:33;24.65;;;17.20;;
53925;SDS011;39836;52.754;6.866;2022-11-20T09:32:59;24.60;;;16.88;;
53925;SDS011;39836;52.754;6.866;2022-11-20T09:35:25;24.15;;;16.33;;
53925;SDS011;39836;52.754;6.866;2022-11-20T09:37:50;25.17;;;17.30;;
53925;SDS011;39836;52.754;6.866;2022-11-20T09:40:23;23.27;;;17.25;;
53925;SDS011;39836;52.754;6.866;2022-11-20T09:48:34;19.98;;;15.18;;
53925;SDS011;39836;52.754;6.866;2022-11-20T09:51:25;21.55;;;15.18;;
53925;SDS011;39836;52.754;6.866;2022-11-20T09:54:31;23.00;;;15.02;;
53925;SDS011;39836;52.754;6.866;2022-11-20T09:57:03;22.13;;;14.45;;
53925;SDS011;39836;52.754;6.866;2022-11-20T09:59:39;23.55;;;16.35;;
53925;SDS011;39836;52.754;6.866;2022-11-20T10:04:53;21.23;;;15.57;;
53925;SDS011;39836;52.754;6.866;2022-11-20T10:07:32;23.13;;;15.95;;
53925;SDS011;39836;52.754;6.866;2022-11-20T10:10:43;23.83;;;16.15;;
53925;SDS011;39836;52.754;6.866;2022-11-20T10:18:52;20.52;;;15.48;;
53925;SDS011;39836;52.754;6.866;2022-11-20T10:21:38;21.77;;;15.82;;
53925;SDS011;39836;52.754;6.866;2022-11-20T10:24:29;22.83;;;16.90;;
53925;SDS011;39836;52.754;6.866;2022-11-20T10:27:08;21.08;;;14.68;;
53925;SDS011;39836;52.754;6.866;2022-11-20T10:30:06;22.92;;;15.88;;
53925;SDS011;39836;52.754;6.866;2022-11-20T10:32:36;24.55;;;16.20;;
53925;SDS011;39836;52.754;6.866;2022-11-20T10:37:40;22.17;;;14.60;;
53925;SDS011;39836;52.754;6.866;2022-11-20T10:42:48;21.95;;;15.55;;
53925;SDS011;39836;52.754;6.866;2022-11-20T10:45:45;20.50;;;14.30;;
53925;SDS011;39836;52.754;6.866;2022-11-20T10:48:16;22.30;;;13.75;;
53925;SDS011;39836;52.754;6.866;2022-11-20T10:50:52;17.40;;;13.23;;
53925;SDS011;39836;52.754;6.866;2022-11-20T10:56:11;17.23;;;12.63;;
53925;SDS011;39836;52.754;6.866;2022-11-20T10:58:52;17.83;;;12.88;;
53925;SDS011;39836;52.754;6.866;2022-11-20T11:01:27;17.38;;;11.65;;
53925;SDS011;39836;52.754;6.866;2022-11-20T11:03:54;16.42;;;12.23;;
53925;SDS011;39836;52.754;6.866;2022-11-20T11:09:01;19.15;;;14.60;;
53925;SDS011;39836;52.754;6.866;2022-11-20T11:11:34;15.30;;;12.05;;
53925;SDS011;39836;52.754;6.866;2022-11-20T11:14:06;18.25;;;12.25;;
53925;SDS011;39836;52.754;6.866;2022-11-20T11:16:33;19.65;;;13.50;;
53925;SDS011;39836;52.754;6.866;2022-11-20T11:19:06;17.23;;;12.63;;
53925;SDS011;39836;52.754;6.866;2022-11-20T11:21:36;17.35;;;12.52;;
53925;SDS011;39836;52.754;6.866;2022-11-20T11:24:14;18.25;;;12.43;;
53925;SDS011;39836;52.754;6.866;2022-11-20T11:27:04;21.10;;;13.15;;
53925;SDS011;39836;52.754;6.866;2022-11-20T11:29:37;15.13;;;12.15;;
53925;SDS011;39836;52.754;6.866;2022-11-20T11:32:07;20.42;;;12.38;;
53925;SDS011;39836;52.754;6.866;2022-11-20T11:34:40;18.92;;;12.32;;
53925;SDS011;39836;52.754;6.866;2022-11-20T11:37:10;17.92;;;12.18;;
53925;SDS011;39836;52.754;6.866;2022-11-20T11:39:42;18.88;;;12.38;;
53925;SDS011;39836;52.754;6.866;2022-11-20T11:42:13;16.55;;;11.82;;
53925;SDS011;39836;52.754;6.866;2022-11-20T11:44:44;13.70;;;10.23;;
53925;SDS011;39836;52.754;6.866;2022-11-20T11:47:31;14.40;;;11.13;;
53925;SDS011;39836;52.754;6.866;2022-11-20T11:50:19;13.60;;;10.30;;
53925;SDS011;39836;52.754;6.866;2022-11-20T11:55:26;15.85;;;10.98;;
53925;SDS011;39836;52.754;6.866;2022-11-20T12:03:59;14.98;;;11.35;;
53925;SDS011;39836;52.754;6.866;2022-11-20T12:06:39;15.27;;;11.95;;
53925;SDS011;39836;52.754;6.866;2022-11-20T12:09:11;18.05;;;12.80;;
53925;SDS011;39836;52.754;6.866;2022-11-20T12:11:45;18.52;;;12.13;;
53925;SDS011;39836;52.754;6.866;2022-11-20T12:14:49;16.77;;;11.95;;
53925;SDS011;39836;52.754;6.866;2022-11-20T12:17:11;16.30;;;12.00;;
53925;SDS011;39836;52.754;6.866;2022-11-20T12:19:38;14.20;;;11.30;;
53925;SDS011;39836;52.754;6.866;2022-11-20T12:22:06;14.60;;;11.27;;
53925;SDS011;39836;52.754;6.866;2022-11-20T12:24:42;16.05;;;11.32;;
53925;SDS011;39836;52.754;6.866;2022-11-20T12:30:02;15.63;;;11.82;;
53925;SDS011;39836;52.754;6.866;2022-11-20T12:35:28;20.48;;;12.13;;
53925;SDS011;39836;52.754;6.866;2022-11-20T12:41:09;14.65;;;11.32;;
53925;SDS011;39836;52.754;6.866;2022-11-20T12:44:40;17.42;;;11.75;;
53925;SDS011;39836;52.754;6.866;2022-11-20T12:51:03;19.17;;;12.40;;
53925;SDS011;39836;52.754;6.866;2022-11-20T12:57:06;15.43;;;11.98;;
53925;SDS011;39836;52.754;6.866;2022-11-20T13:07:27;17.83;;;12.40;;
53925;SDS011;39836;52.754;6.866;2022-11-20T13:09:54;17.17;;;12.30;;
53925;SDS011;39836;52.754;6.866;2022-11-20T13:12:24;19.30;;;13.27;;
53925;SDS011;39836;52.754;6.866;2022-11-20T13:19:53;18.08;;;13.80;;
53925;SDS011;39836;52.754;6.866;2022-11-20T13:25:21;20.08;;;14.73;;
53925;SDS011;39836;52.754;6.866;2022-11-20T13:27:51;22.85;;;15.52;;
53925;SDS011;39836;52.754;6.866;2022-11-20T13:30:35;20.27;;;15.13;;
53925;SDS011;39836;52.754;6.866;2022-11-20T13:33:06;20.30;;;14.20;;
53925;SDS011;39836;52.754;6.866;2022-11-20T13:35:40;25.05;;;15.68;;
53925;SDS011;39836;52.754;6.866;2022-11-20T13:40:33;21.73;;;15.98;;
53925;SDS011;39836;52.754;6.866;2022-11-20T13:43:04;22.90;;;16.50;;
53925;SDS011;39836;52.754;6.866;2022-11-20T13:45:41;23.58;;;16.90;;
53925;SDS011;39836;52.754;6.866;2022-11-20T13:48:23;23.52;;;16.40;;
53925;SDS011;39836;52.754;6.866;2022-11-20T13:53:33;23.05;;;16.45;;
53925;SDS011;39836;52.754;6.866;2022-11-20T14:01:23;25.63;;;18.67;;
53925;SDS011;39836;52.754;6.866;2022-11-20T14:03:49;26.00;;;18.70;;
53925;SDS011;39836;52.754;6.866;2022-11-20T14:09:25;23.63;;;16.97;;
53925;SDS011;39836;52.754;6.866;2022-11-20T14:11:55;28.85;;;19.20;;
53925;SDS011;39836;52.754;6.866;2022-11-20T14:14:23;25.70;;;17.65;;
53925;SDS011;39836;52.754;6.866;2022-11-20T14:17:09;24.10;;;17.17;;
53925;SDS011;39836;52.754;6.866;2022-11-20T14:19:51;27.35;;;18.42;;
53925;SDS011;39836;52.754;6.866;2022-11-20T14:24:44;22.98;;;17.77;;
53925;SDS011;39836;52.754;6.866;2022-11-20T14:27:20;25.17;;;17.90;;
53925;SDS011;39836;52.754;6.866;2022-11-20T14:29:47;26.45;;;18.83;;
53925;SDS011;39836;52.754;6.866;2022-11-20T14:32:16;27.58;;;19.38;;
53925;SDS011;39836;52.754;6.866;2022-11-20T14:34:44;28.30;;;19.58;;
53925;SDS011;39836;52.754;6.866;2022-11-20T14:37:13;26.55;;;19.30;;
53925;SDS011;39836;52.754;6.866;2022-11-20T14:39:52;26.35;;;19.50;;
53925;SDS011;39836;52.754;6.866;2022-11-20T14:42:23;30.25;;;20.23;;
53925;SDS011;39836;52.754;6.866;2022-11-20T14:44:51;28.05;;;19.80;;
53925;SDS011;39836;52.754;6.866;2022-11-20T14:47:23;28.23;;;19.83;;
53925;SDS011;39836;52.754;6.866;2022-11-20T14:49:51;27.65;;;19.95;;
53925;SDS011;39836;52.754;6.866;2022-11-20T14:52:27;27.27;;;19.35;;
53925;SDS011;39836;52.754;6.866;2022-11-20T14:54:54;25.85;;;19.65;;
53925;SDS011;39836;52.754;6.866;2022-11-20T14:57:33;25.88;;;19.60;;
53925;SDS011;39836;52.754;6.866;2022-11-20T15:02:38;27.67;;;18.30;;
53925;SDS011;39836;52.754;6.866;2022-11-20T15:05:08;28.27;;;20.25;;
53925;SDS011;39836;52.754;6.866;2022-11-20T15:07:35;30.17;;;20.77;;
53925;SDS011;39836;52.754;6.866;2022-11-20T15:12:49;30.52;;;21.45;;
53925;SDS011;39836;52.754;6.866;2022-11-20T15:15:21;27.30;;;19.10;;
53925;SDS011;39836;52.754;6.866;2022-11-20T15:17:51;28.50;;;19.90;;
53925;SDS011;39836;52.754;6.866;2022-11-20T15:20:17;27.95;;;19.45;;
53925;SDS011;39836;52.754;6.866;2022-11-20T15:22:43;25.52;;;18.08;;
53925;SDS011;39836;52.754;6.866;2022-11-20T15:25:15;26.45;;;18.42;;
53925;SDS011;39836;52.754;6.866;2022-11-20T15:27:43;29.00;;;20.02;;
53925;SDS011;39836;52.754;6.866;2022-11-20T15:30:16;26.38;;;18.23;;
53925;SDS011;39836;52.754;6.866;2022-11-20T15:32:43;27.95;;;19.92;;
53925;SDS011;39836;52.754;6.866;2022-11-20T15:35:10;26.70;;;18.17;;
53925;SDS011;39836;52.754;6.866;2022-11-20T15:37:39;27.95;;;18.00;;
53925;SDS011;39836;52.754;6.866;2022-11-20T15:40:05;28.75;;;18.08;;
53925;SDS011;39836;52.754;6.866;2022-11-20T15:42:32;28.73;;;19.23;;
53925;SDS011;39836;52.754;6.866;2022-11-20T15:44:58;28.17;;;19.50;;
53925;SDS011;39836;52.754;6.866;2022-11-20T15:47:33;29.27;;;20.55;;
53925;SDS011;39836;52.754;6.866;2022-11-20T15:52:25;27.43;;;18.47;;
53925;SDS011;39836;52.754;6.866;2022-11-20T15:54:51;28.38;;;19.70;;
53925;SDS011;39836;52.754;6.866;2022-11-20T15:57:17;31.15;;;19.20;;
53925;SDS011;39836;52.754;6.866;2022-11-20T15:59:43;28.42;;;20.10;;
53925;SDS011;39836;52.754;6.866;2022-11-20T16:02:09;29.70;;;20.65;;
53925;SDS011;39836;52.754;6.866;2022-11-20T16:04:36;26.55;;;19.08;;
53925;SDS011;39836;52.754;6.866;2022-11-20T16:07:02;30.83;;;21.05;;
53925;SDS011;39836;52.754;6.866;2022-11-20T16:09:28;27.08;;;19.23;;